createdAt,value
2018-07-24T00:02:11.700Z,10.77
2018-07-24T00:04:40.151Z,9.10
2018-07-24T00:07:08.556Z,9.70
2018-07-24T00:09:37.059Z,10.30
2018-07-24T00:12:05.532Z,8.27
2018-07-24T00:14:33.916Z,9.67
2018-07-24T00:17:02.368Z,12.83
2018-07-24T00:19:30.761Z,9.37
2018-07-24T00:21:59.139Z,8.13
2018-07-24T00:24:27.573Z,8.67
2018-07-24T00:26:56.013Z,10.77
2018-07-24T00:29:24.445Z,9.53
2018-07-24T00:31:53.523Z,10.03
2018-07-24T00:34:22.126Z,10.77
2018-07-24T00:36:50.606Z,9.00
2018-07-24T00:39:19.077Z,8.13
2018-07-24T00:41:47.428Z,6.87
2018-07-24T00:44:15.800Z,7.17
2018-07-24T00:46:44.736Z,7.20
2018-07-24T00:49:12.810Z,7.63
2018-07-24T00:51:41.200Z,6.47
2018-07-24T00:54:09.667Z,8.63
2018-07-24T00:56:38.050Z,6.13
2018-07-24T00:59:06.608Z,6.20
2018-07-24T01:01:35.072Z,8.20
2018-07-24T01:04:04.311Z,6.40
2018-07-24T01:06:32.454Z,6.03
2018-07-24T01:09:00.856Z,8.77
2018-07-24T01:11:29.316Z,6.70
2018-07-24T01:13:57.736Z,7.83
2018-07-24T01:16:25.901Z,6.07
2018-07-24T01:18:54.361Z,6.10
2018-07-24T01:21:22.764Z,7.07
2018-07-24T01:23:51.134Z,8.23
2018-07-24T01:26:19.564Z,7.30
2018-07-24T01:28:48.539Z,6.70
2018-07-24T01:31:17.125Z,7.17
2018-07-24T01:33:45.268Z,10.03
2018-07-24T01:36:13.677Z,7.67
2018-07-24T01:38:42.150Z,7.83
2018-07-24T01:41:10.614Z,7.33
2018-07-24T01:43:39.017Z,7.20
2018-07-24T01:46:07.401Z,7.93
2018-07-24T01:48:35.805Z,6.30
2018-07-24T01:51:04.250Z,8.57
2018-07-24T01:53:32.637Z,6.43
2018-07-24T01:56:01.054Z,8.70
2018-07-24T01:58:29.421Z,7.07
2018-07-24T02:01:02.122Z,8.67
2018-07-24T02:03:30.954Z,7.00
2018-07-24T02:05:59.334Z,6.90
2018-07-24T02:08:27.780Z,7.63
2018-07-24T02:10:56.210Z,9.23
2018-07-24T02:13:25.077Z,7.80
2018-07-24T02:15:53.568Z,10.07
2018-07-24T02:18:21.931Z,7.57
2018-07-24T02:20:50.446Z,7.80
2018-07-24T02:23:18.833Z,7.20
2018-07-24T02:25:47.298Z,7.00
2018-07-24T02:28:15.772Z,6.80
2018-07-24T02:30:44.179Z,8.23
2018-07-24T02:33:12.581Z,9.03
2018-07-24T02:35:41.050Z,7.33
2018-07-24T02:38:09.495Z,10.43
2018-07-24T02:40:37.889Z,8.37
2018-07-24T02:43:06.610Z,8.10
2018-07-24T02:45:35.038Z,7.47
2018-07-24T02:48:03.434Z,8.73
2018-07-24T02:50:31.926Z,8.20
2018-07-24T02:53:00.438Z,9.30
2018-07-24T02:55:28.870Z,7.77
2018-07-24T02:57:57.368Z,7.60
2018-07-24T03:00:25.845Z,7.00
2018-07-24T03:02:54.233Z,8.63
2018-07-24T03:05:22.655Z,7.30
2018-07-24T03:07:51.061Z,6.83
2018-07-24T03:10:19.471Z,6.70
2018-07-24T03:12:47.915Z,9.60
2018-07-24T03:15:16.362Z,8.07
2018-07-24T03:17:44.717Z,7.10
2018-07-24T03:20:13.126Z,8.07
2018-07-24T03:22:41.558Z,7.37
2018-07-24T03:25:09.986Z,7.43
2018-07-24T03:27:38.417Z,8.00
2018-07-24T03:30:06.878Z,7.10
2018-07-24T03:32:35.321Z,7.47
2018-07-24T03:35:03.786Z,7.33
2018-07-24T03:37:32.225Z,8.13
2018-07-24T03:40:00.712Z,6.90
2018-07-24T03:42:29.106Z,7.60
2018-07-24T03:44:57.850Z,7.10
2018-07-24T03:47:26.244Z,6.97
2018-07-24T03:49:54.641Z,8.90
2018-07-24T03:52:23.065Z,7.63
2018-07-24T03:54:51.476Z,7.67
2018-07-24T03:57:19.881Z,7.47
2018-07-24T03:59:48.514Z,7.93
2018-07-24T04:02:16.972Z,7.37
2018-07-24T04:04:45.374Z,6.90
2018-07-24T04:07:14.650Z,8.93
2018-07-24T04:09:43.051Z,8.83
2018-07-24T04:12:11.470Z,7.00
2018-07-24T04:14:39.850Z,7.20
2018-07-24T04:17:08.322Z,11.10
2018-07-24T04:19:36.745Z,7.93
2018-07-24T04:22:05.161Z,7.67
2018-07-24T04:24:33.613Z,7.40
2018-07-24T04:27:02.050Z,7.33
2018-07-24T04:29:30.428Z,7.77
2018-07-24T04:31:58.876Z,6.77
2018-07-24T04:34:27.369Z,7.87
2018-07-24T04:36:55.758Z,6.80
2018-07-24T04:39:24.262Z,7.07
2018-07-24T04:41:52.650Z,7.13
2018-07-24T04:44:27.470Z,7.27
2018-07-24T04:46:55.905Z,8.03
2018-07-24T04:49:24.387Z,8.00
2018-07-24T04:51:52.778Z,7.57
2018-07-24T04:54:21.157Z,7.57
2018-07-24T04:56:49.655Z,10.07
2018-07-24T04:59:18.062Z,8.83
2018-07-24T05:01:46.499Z,10.17
2018-07-24T05:04:14.917Z,10.87
2018-07-24T05:06:43.337Z,10.93
2018-07-24T05:09:13.417Z,11.87
2018-07-24T05:11:42.196Z,12.43
2018-07-24T05:14:11.421Z,8.53
2018-07-24T05:16:40.105Z,8.60
2018-07-24T05:19:09.065Z,14.60
2018-07-24T05:21:37.755Z,15.07
2018-07-24T05:24:06.492Z,15.70
2018-07-24T05:26:34.973Z,17.40
2018-07-24T05:29:03.495Z,17.60
2018-07-24T05:31:32.111Z,18.83
2018-07-24T05:34:01.072Z,18.67
2018-07-24T05:36:30.193Z,21.00
2018-07-24T05:38:58.620Z,19.87
2018-07-24T05:41:27.136Z,22.10
2018-07-24T05:43:55.572Z,21.23
2018-07-24T05:46:23.645Z,20.43
2018-07-24T05:48:51.779Z,20.23
2018-07-24T05:51:20.176Z,23.17
2018-07-24T05:53:48.585Z,22.50
2018-07-24T05:56:16.974Z,22.13
2018-07-24T05:58:45.993Z,22.97
2018-07-24T06:01:14.437Z,23.23
2018-07-24T06:03:42.942Z,24.23
2018-07-24T06:06:11.445Z,23.27
2018-07-24T06:08:39.952Z,24.37
2018-07-24T06:11:08.770Z,24.23
2018-07-24T06:13:37.185Z,24.80
2018-07-24T06:16:05.733Z,25.53
2018-07-24T06:18:34.155Z,23.87
2018-07-24T06:21:02.583Z,25.03
2018-07-24T06:23:31.032Z,24.37
2018-07-24T06:25:59.491Z,26.07
2018-07-24T06:28:28.122Z,24.70
2018-07-24T06:30:56.590Z,24.33
2018-07-24T06:33:25.001Z,24.83
2018-07-24T06:35:53.428Z,24.43
2018-07-24T06:38:21.890Z,24.03
2018-07-24T06:40:50.342Z,24.23
2018-07-24T06:43:18.835Z,24.47
2018-07-24T06:45:47.218Z,25.63
2018-07-24T06:48:15.662Z,24.13
2018-07-24T06:50:44.047Z,22.30
2018-07-24T06:53:12.469Z,25.67
2018-07-24T06:55:40.996Z,21.57
2018-07-24T06:58:09.402Z,21.60
2018-07-24T07:00:37.866Z,25.00
2018-07-24T07:03:06.313Z,22.53
2018-07-24T07:05:34.753Z,23.73
2018-07-24T07:08:03.192Z,21.60
2018-07-24T07:10:38.170Z,24.83
2018-07-24T07:13:06.861Z,23.43
2018-07-24T07:15:35.667Z,21.03
2018-07-24T07:18:04.261Z,19.83
2018-07-24T07:20:32.948Z,21.10
2018-07-24T07:23:01.345Z,20.47
2018-07-24T07:25:29.776Z,19.47
2018-07-24T07:27:58.283Z,19.37
2018-07-24T07:30:26.666Z,20.03
2018-07-24T07:32:55.496Z,19.03
2018-07-24T07:35:23.949Z,16.63
2018-07-24T07:37:52.373Z,19.00
2018-07-24T07:40:20.838Z,17.23
2018-07-24T07:42:49.254Z,19.30
2018-07-24T07:45:17.701Z,16.43
2018-07-24T07:47:46.141Z,15.70
2018-07-24T07:50:14.533Z,18.27
2018-07-24T07:52:42.963Z,16.17
2018-07-24T07:55:11.362Z,19.77
2018-07-24T07:57:39.785Z,16.37
2018-07-24T08:00:08.198Z,18.10
2018-07-24T08:02:36.788Z,15.17
2018-07-24T08:05:05.197Z,16.90
2018-07-24T08:07:33.621Z,16.20
2018-07-24T08:10:02.045Z,13.47
2018-07-24T08:12:30.430Z,15.07
2018-07-24T08:14:58.897Z,16.57
2018-07-24T08:17:27.401Z,16.80
2018-07-24T08:19:55.811Z,16.27
2018-07-24T08:22:24.360Z,15.20
2018-07-24T08:24:52.887Z,18.40
2018-07-24T08:27:21.314Z,15.07
2018-07-24T08:29:49.702Z,16.47
2018-07-24T08:32:18.137Z,11.43
2018-07-24T08:34:46.566Z,13.03
2018-07-24T08:37:15.055Z,13.40
2018-07-24T08:39:43.917Z,12.33
2018-07-24T08:42:12.382Z,12.57
2018-07-24T08:44:40.803Z,11.30
2018-07-24T08:47:09.244Z,10.00
2018-07-24T08:49:38.441Z,10.37
2018-07-24T08:52:06.861Z,10.57
2018-07-24T08:54:35.440Z,9.30
2018-07-24T08:57:03.867Z,9.00
2018-07-24T08:59:32.249Z,9.50
2018-07-24T09:02:01.213Z,9.40
2018-07-24T09:04:29.831Z,14.40
2018-07-24T09:06:58.845Z,9.87
2018-07-24T09:09:27.269Z,9.03
2018-07-24T09:11:55.676Z,9.90
2018-07-24T09:14:24.060Z,11.33
2018-07-24T09:16:52.457Z,11.80
2018-07-24T09:19:21.578Z,10.17
2018-07-24T09:21:49.989Z,10.63
2018-07-24T09:24:18.369Z,10.57
2018-07-24T09:26:46.769Z,10.63
2018-07-24T09:29:15.127Z,8.47
2018-07-24T09:31:43.588Z,8.63
2018-07-24T09:34:11.995Z,8.93
2018-07-24T09:36:40.417Z,10.13
2018-07-24T09:39:09.953Z,7.50
2018-07-24T09:41:38.783Z,10.33
2018-07-24T09:44:07.270Z,6.43
2018-07-24T09:46:35.812Z,8.90
2018-07-24T09:49:04.366Z,6.93
2018-07-24T09:51:33.431Z,8.73
2018-07-24T09:54:02.157Z,6.90
2018-07-24T09:56:30.751Z,8.33
2018-07-24T09:58:59.205Z,6.53
2018-07-24T10:01:30.605Z,6.17
2018-07-24T10:03:59.432Z,6.37
2018-07-24T10:06:27.833Z,7.20
2018-07-24T10:08:56.223Z,6.50
2018-07-24T10:11:24.677Z,7.47
2018-07-24T10:13:53.114Z,5.50
2018-07-24T10:16:21.617Z,8.03
2018-07-24T10:18:50.088Z,6.77
2018-07-24T10:21:18.573Z,8.77
2018-07-24T10:23:46.959Z,10.10
2018-07-24T10:26:15.528Z,9.47
2018-07-24T10:28:44.046Z,7.17
2018-07-24T10:31:12.454Z,7.30
2018-07-24T10:33:40.877Z,8.73
2018-07-24T10:36:09.238Z,8.90
2018-07-24T10:38:37.813Z,9.73
2018-07-24T10:41:06.370Z,8.20
2018-07-24T10:43:34.970Z,11.47
2018-07-24T10:46:03.532Z,7.37
2018-07-24T10:48:32.018Z,8.97
2018-07-24T10:51:00.498Z,9.50
2018-07-24T10:53:28.921Z,8.57
2018-07-24T10:55:57.054Z,9.50
2018-07-24T10:58:25.473Z,9.40
2018-07-24T11:00:53.875Z,8.90
2018-07-24T11:03:22.300Z,10.03
2018-07-24T11:05:50.750Z,9.77
2018-07-24T11:08:19.321Z,9.13
2018-07-24T11:10:47.773Z,9.63
2018-07-24T11:13:16.210Z,7.90
2018-07-24T11:15:44.631Z,11.43
2018-07-24T11:18:13.121Z,9.70
2018-07-24T11:20:41.572Z,10.73
2018-07-24T11:23:10.221Z,7.50
2018-07-24T11:25:39.424Z,7.10
2018-07-24T11:28:07.835Z,9.23
2018-07-24T11:30:36.316Z,8.87
2018-07-24T11:33:04.832Z,8.30
2018-07-24T11:35:33.381Z,6.87
2018-07-24T11:38:01.805Z,7.53
2018-07-24T11:40:30.257Z,9.50
2018-07-24T11:42:58.679Z,9.40
2018-07-24T11:45:26.844Z,8.97
2018-07-24T11:47:55.328Z,10.20
2018-07-24T11:50:23.782Z,9.07
2018-07-24T11:52:53.001Z,12.03
2018-07-24T11:55:21.436Z,10.03
2018-07-24T11:57:49.886Z,9.70
2018-07-24T12:00:18.319Z,9.70
2018-07-24T12:02:46.724Z,7.23
2018-07-24T12:05:15.142Z,12.13
2018-07-24T12:07:44.605Z,9.53
2018-07-24T12:10:13.046Z,9.00
2018-07-24T12:12:41.420Z,10.93
2018-07-24T12:15:09.847Z,8.00
2018-07-24T12:17:38.438Z,9.87
2018-07-24T12:20:06.549Z,7.77
2018-07-24T12:22:34.973Z,10.17
2018-07-24T12:25:03.492Z,8.70
2018-07-24T12:27:31.974Z,8.30
2018-07-24T12:30:00.394Z,8.47
2018-07-24T12:32:28.822Z,9.20
2018-07-24T12:34:57.422Z,9.80
2018-07-24T12:37:25.837Z,12.33
2018-07-24T12:39:54.246Z,9.30
2018-07-24T12:42:22.683Z,9.87
2018-07-24T12:44:51.074Z,9.30
2018-07-24T12:47:19.525Z,10.47
2018-07-24T12:49:48.007Z,8.97
2018-07-24T12:52:16.412Z,9.00
2018-07-24T12:54:44.798Z,9.37
2018-07-24T12:57:12.934Z,9.13
2018-07-24T12:59:41.307Z,8.43
2018-07-24T13:02:09.762Z,8.50
2018-07-24T13:04:38.234Z,8.87
2018-07-24T13:07:06.698Z,7.90
2018-07-24T13:09:35.837Z,7.87
2018-07-24T13:12:04.284Z,9.30
2018-07-24T13:14:32.681Z,9.10
2018-07-24T13:17:01.105Z,8.93
2018-07-24T13:19:29.512Z,9.83
2018-07-24T13:21:57.660Z,8.87
2018-07-24T13:24:26.940Z,9.20
2018-07-24T13:26:55.348Z,9.47
2018-07-24T13:29:23.766Z,8.63
2018-07-24T13:31:52.295Z,8.60
2018-07-24T13:34:20.562Z,9.40
2018-07-24T13:36:49.032Z,8.00
2018-07-24T13:39:17.434Z,10.77
2018-07-24T13:41:45.865Z,9.00
2018-07-24T13:44:14.242Z,9.73
2018-07-24T13:46:42.701Z,8.63
2018-07-24T13:49:11.098Z,8.23
2018-07-24T13:51:39.528Z,9.60
2018-07-24T13:54:07.917Z,9.87
2018-07-24T13:56:36.307Z,9.63
2018-07-24T13:59:04.728Z,9.50
2018-07-24T14:01:33.177Z,9.57
2018-07-24T14:04:01.595Z,10.80
2018-07-24T14:06:30.019Z,7.87
2018-07-24T14:08:58.404Z,9.57
2018-07-24T14:11:26.835Z,8.10
2018-07-24T14:13:55.294Z,9.27
2018-07-24T14:16:23.789Z,9.77
2018-07-24T14:18:52.220Z,9.97
2018-07-24T14:21:20.707Z,9.97
2018-07-24T14:23:49.105Z,8.63
2018-07-24T14:26:17.497Z,8.97
2018-07-24T14:28:45.909Z,9.40
2018-07-24T14:31:14.303Z,9.30
2018-07-24T14:33:42.650Z,9.63
2018-07-24T14:36:11.147Z,8.70
2018-07-24T14:38:39.579Z,11.60
2018-07-24T14:41:08.058Z,8.47
2018-07-24T14:43:36.454Z,9.23
2018-07-24T14:46:04.928Z,8.83
2018-07-24T14:48:33.779Z,7.87
2018-07-24T14:51:02.137Z,8.93
2018-07-24T14:53:30.693Z,9.13
2018-07-24T14:55:59.111Z,9.37
2018-07-24T14:58:27.547Z,9.00
2018-07-24T15:00:55.895Z,10.10
2018-07-24T15:03:24.288Z,11.97
2018-07-24T15:05:52.761Z,8.53
2018-07-24T15:08:21.218Z,7.73
2018-07-24T15:10:49.650Z,9.87
2018-07-24T15:13:18.049Z,7.60
2018-07-24T15:15:46.434Z,9.00
2018-07-24T15:18:14.720Z,8.13
2018-07-24T15:20:44.466Z,8.87
2018-07-24T15:23:13.058Z,8.43
2018-07-24T15:25:41.475Z,8.20
2018-07-24T15:28:09.941Z,8.10
2018-07-24T15:30:38.445Z,9.13
2018-07-24T15:33:06.954Z,7.90
2018-07-24T15:35:35.042Z,8.77
2018-07-24T15:38:03.453Z,8.53
2018-07-24T15:40:31.882Z,9.40
2018-07-24T15:43:00.433Z,8.50
2018-07-24T15:45:28.841Z,9.07
2018-07-24T15:47:57.280Z,7.93
2018-07-24T15:50:25.642Z,8.70
2018-07-24T15:52:54.065Z,10.37
2018-07-24T15:55:22.541Z,11.27
2018-07-24T15:57:50.999Z,8.17
2018-07-24T16:00:19.438Z,8.53
2018-07-24T16:02:47.620Z,8.90
2018-07-24T16:05:16.109Z,7.83
2018-07-24T16:07:44.541Z,8.43
2018-07-24T16:10:12.949Z,8.77
2018-07-24T16:12:41.281Z,10.20
2018-07-24T16:15:09.742Z,9.23
2018-07-24T16:17:38.226Z,8.07
2018-07-24T16:20:06.973Z,8.37
2018-07-24T16:22:35.437Z,8.83
2018-07-24T16:25:04.092Z,8.23
2018-07-24T16:27:32.525Z,8.03
2018-07-24T16:30:01.524Z,10.07
2018-07-24T16:32:30.182Z,8.20
2018-07-24T16:34:58.597Z,9.53
2018-07-24T16:37:26.709Z,7.97
2018-07-24T16:39:55.117Z,8.63
2018-07-24T16:42:23.587Z,8.57
2018-07-24T16:44:52.044Z,7.83
2018-07-24T16:47:20.493Z,8.70
2018-07-24T16:49:48.677Z,8.23
2018-07-24T16:52:17.074Z,9.03
2018-07-24T16:54:45.653Z,8.03
2018-07-24T16:57:13.783Z,7.97
2018-07-24T16:59:42.233Z,7.83
2018-07-24T17:02:11.070Z,7.90
2018-07-24T17:04:41.034Z,8.20
2018-07-24T17:07:09.478Z,8.53
2018-07-24T17:09:37.951Z,8.40
2018-07-24T17:12:06.857Z,7.57
2018-07-24T17:14:35.642Z,7.70
2018-07-24T17:17:04.064Z,8.47
2018-07-24T17:19:32.550Z,11.03
2018-07-24T17:22:00.978Z,8.50
2018-07-24T17:24:29.840Z,8.57
2018-07-24T17:26:58.249Z,8.33
2018-07-24T17:29:27.198Z,8.23
2018-07-24T17:31:55.664Z,7.50
2018-07-24T17:34:24.082Z,7.90
2018-07-24T17:36:52.671Z,9.37
2018-07-24T17:39:21.092Z,11.93
2018-07-24T17:41:49.529Z,8.43
2018-07-24T17:44:18.026Z,9.87
2018-07-24T17:46:46.480Z,11.17
2018-07-24T17:49:14.949Z,10.50
2018-07-24T17:51:43.394Z,9.73
2018-07-24T17:54:11.817Z,11.23
2018-07-24T17:56:40.215Z,9.00
2018-07-24T17:59:08.745Z,8.77
2018-07-24T18:01:37.179Z,8.47
2018-07-24T18:04:05.744Z,9.47
2018-07-24T18:06:34.166Z,8.57
2018-07-24T18:09:02.679Z,9.17
2018-07-24T18:11:31.070Z,9.63
2018-07-24T18:13:59.513Z,8.43
2018-07-24T18:16:27.991Z,8.53
2018-07-24T18:18:56.399Z,8.40
2018-07-24T18:21:24.938Z,8.80
2018-07-24T18:23:53.318Z,8.80
2018-07-24T18:26:21.778Z,8.50
2018-07-24T18:28:50.222Z,11.47
2018-07-24T18:31:18.612Z,8.00
2018-07-24T18:33:46.989Z,7.00
2018-07-24T18:36:15.413Z,6.83
2018-07-24T18:38:44.035Z,5.67
2018-07-24T18:41:12.350Z,6.33
2018-07-24T18:43:40.792Z,5.53
2018-07-24T18:46:09.201Z,7.77
2018-07-24T18:48:37.654Z,6.03
2018-07-24T18:51:06.233Z,7.17
2018-07-24T18:53:34.869Z,8.40
2018-07-24T18:56:03.341Z,6.83
2018-07-24T18:58:31.763Z,7.13
2018-07-24T19:01:00.163Z,5.43
2018-07-24T19:03:29.071Z,6.93
2018-07-24T19:05:57.599Z,5.43
2018-07-24T19:08:26.536Z,6.90
2018-07-24T19:10:55.126Z,5.90
2018-07-24T19:13:23.525Z,4.97
2018-07-24T19:15:51.943Z,4.50
2018-07-24T19:18:20.694Z,9.60
2018-07-24T19:20:49.143Z,4.93
2018-07-24T19:23:17.596Z,6.23
2018-07-24T19:25:47.213Z,7.00
2018-07-24T19:28:15.632Z,6.30
2018-07-24T19:30:44.268Z,7.80
2018-07-24T19:33:12.777Z,4.73
2018-07-24T19:35:41.160Z,5.33
2018-07-24T19:38:09.685Z,6.20
2018-07-24T19:40:38.142Z,6.03
2018-07-24T19:43:06.579Z,5.30
2018-07-24T19:45:35.161Z,7.90
2018-07-24T19:48:03.595Z,4.07
2018-07-24T19:50:31.993Z,8.43
2018-07-24T19:53:00.429Z,8.97
2018-07-24T19:55:28.849Z,5.37
2018-07-24T19:57:57.379Z,6.90
2018-07-24T20:00:25.833Z,7.23
2018-07-24T20:02:53.952Z,6.37
2018-07-24T20:05:22.410Z,6.77
2018-07-24T20:07:50.860Z,4.63
2018-07-24T20:10:19.366Z,5.87
2018-07-24T20:12:47.830Z,5.17
2018-07-24T20:15:19.177Z,5.33
2018-07-24T20:17:47.778Z,4.53
2018-07-24T20:20:16.737Z,5.90
2018-07-24T20:22:45.736Z,4.53
2018-07-24T20:25:14.187Z,4.67
2018-07-24T20:27:42.773Z,4.20
2018-07-24T20:30:11.225Z,4.60
2018-07-24T20:32:39.669Z,4.17
2018-07-24T20:35:08.453Z,4.23
2018-07-24T20:37:36.509Z,7.73
2018-07-24T20:40:05.787Z,7.53
2018-07-24T20:42:34.561Z,6.77
2018-07-24T20:45:03.751Z,5.10
2018-07-24T20:47:32.677Z,4.57
2018-07-24T20:50:01.096Z,5.77
2018-07-24T20:52:29.571Z,5.30
2018-07-24T20:54:57.989Z,4.57
2018-07-24T20:57:26.426Z,4.77
2018-07-24T20:59:54.967Z,4.90
2018-07-24T21:02:23.493Z,9.10
2018-07-24T21:04:51.972Z,4.57
2018-07-24T21:07:20.456Z,4.67
2018-07-24T21:09:48.881Z,4.40
2018-07-24T21:12:17.317Z,3.93
2018-07-24T21:14:45.741Z,5.05
2018-07-24T21:17:14.137Z,4.60
2018-07-24T21:19:42.566Z,6.47
2018-07-24T21:22:11.045Z,6.13
2018-07-24T21:24:39.430Z,7.00
2018-07-24T21:27:07.859Z,5.40
2018-07-24T21:29:36.284Z,4.70
2018-07-24T21:32:04.763Z,5.87
2018-07-24T21:34:33.873Z,4.30
2018-07-24T21:37:02.250Z,5.43
2018-07-24T21:39:30.641Z,4.73
2018-07-24T21:41:59.065Z,7.33
2018-07-24T21:44:27.498Z,4.30
2018-07-24T21:46:55.932Z,7.37
2018-07-24T21:49:24.286Z,4.43
2018-07-24T21:51:52.767Z,5.10
2018-07-24T21:54:21.177Z,4.40
2018-07-24T21:56:49.620Z,4.20
2018-07-24T21:59:18.015Z,5.83
2018-07-24T22:01:46.518Z,5.77
2018-07-24T22:04:14.953Z,4.23
2018-07-24T22:06:43.990Z,4.80
2018-07-24T22:09:12.475Z,7.27
2018-07-24T22:11:40.856Z,6.93
2018-07-24T22:14:09.260Z,5.00
2018-07-24T22:16:37.750Z,4.20
2018-07-24T22:19:06.232Z,3.83
2018-07-24T22:21:34.625Z,5.77
2018-07-24T22:24:03.085Z,5.23
2018-07-24T22:26:31.519Z,5.20
2018-07-24T22:28:59.953Z,5.50
2018-07-24T22:31:28.337Z,6.30
2018-07-24T22:33:56.761Z,6.83
2018-07-24T22:36:25.159Z,4.97
2018-07-24T22:38:53.605Z,6.53
2018-07-24T22:41:22.028Z,6.30
2018-07-24T22:43:50.492Z,5.57
2018-07-24T22:46:18.901Z,5.57
2018-07-24T22:48:47.503Z,7.67
2018-07-24T22:51:15.997Z,3.80
2018-07-24T22:53:44.761Z,5.33
2018-07-24T22:56:13.237Z,4.43
2018-07-24T22:58:41.596Z,6.13
2018-07-24T23:01:10.129Z,4.33
2018-07-24T23:03:38.539Z,6.13
2018-07-24T23:06:06.898Z,5.77
2018-07-24T23:08:35.441Z,8.30
2018-07-24T23:11:03.833Z,4.90
2018-07-24T23:13:32.247Z,5.87
2018-07-24T23:16:00.669Z,3.90
2018-07-24T23:18:29.134Z,3.90
2018-07-24T23:20:57.556Z,3.77
2018-07-24T23:23:25.704Z,3.63
2018-07-24T23:25:54.090Z,5.40
2018-07-24T23:28:22.453Z,4.80
2018-07-24T23:30:50.910Z,3.57
2018-07-24T23:33:19.297Z,3.80
2018-07-24T23:35:47.795Z,9.30
2018-07-24T23:38:16.230Z,3.73
2018-07-24T23:40:44.677Z,5.87
2018-07-24T23:43:13.889Z,4.00
2018-07-24T23:45:42.769Z,4.07
2018-07-24T23:48:11.259Z,4.73
2018-07-24T23:50:39.552Z,3.93
2018-07-24T23:53:07.998Z,5.83
2018-07-24T23:55:36.413Z,4.97
2018-07-24T23:58:05.092Z,3.60
